createdAt,value
2022-08-19T00:00:11.886Z,16.90
2022-08-19T00:03:00.117Z,17.90
2022-08-19T00:05:28.391Z,17.50
2022-08-19T00:07:56.666Z,16.60
2022-08-19T00:10:25.576Z,17.20
2022-08-19T00:12:53.943Z,16.90
2022-08-19T00:15:23.639Z,18.00
2022-08-19T00:17:51.931Z,18.30
2022-08-19T00:20:22.905Z,17.30
2022-08-19T00:22:51.418Z,18.60
2022-08-19T00:25:29.862Z,17.70
2022-08-19T00:28:00.599Z,18.10
2022-08-19T00:30:29.543Z,17.20
2022-08-19T00:32:58.809Z,17.00
2022-08-19T00:35:28.490Z,17.00
2022-08-19T00:37:57.297Z,17.70
2022-08-19T00:40:26.680Z,17.90
2022-08-19T00:42:55.069Z,17.40
2022-08-19T00:45:27.061Z,17.60
2022-08-19T00:47:55.354Z,17.80
2022-08-19T00:50:24.238Z,17.40
2022-08-19T00:52:53.780Z,18.10
2022-08-19T00:55:26.246Z,17.70
2022-08-19T00:57:59.302Z,16.70
2022-08-19T01:00:30.078Z,17.40
2022-08-19T01:02:58.797Z,17.40
2022-08-19T01:05:29.935Z,17.00
2022-08-19T01:08:02.108Z,17.20
2022-08-19T01:10:36.646Z,16.90
2022-08-19T01:13:06.116Z,17.90
2022-08-19T01:15:41.259Z,18.30
2022-08-19T01:18:12.817Z,17.90
2022-08-19T01:20:43.089Z,18.10
2022-08-19T01:23:11.914Z,15.90
2022-08-19T01:25:52.419Z,18.30
2022-08-19T01:28:34.068Z,17.90
2022-08-19T01:31:27.009Z,17.40
2022-08-19T01:33:58.514Z,16.60
2022-08-19T01:36:42.939Z,17.50
2022-08-19T01:39:14.422Z,17.90
2022-08-19T01:41:42.943Z,19.20
2022-08-19T01:44:17.884Z,16.80
2022-08-19T01:46:49.348Z,18.00
2022-08-19T01:49:22.993Z,17.30
2022-08-19T01:51:51.861Z,17.20
2022-08-19T01:54:27.566Z,17.30
2022-08-19T01:57:04.759Z,18.20
2022-08-19T01:59:34.201Z,17.50
2022-08-19T02:02:02.821Z,17.40
2022-08-19T02:04:31.424Z,17.80
2022-08-19T02:06:59.823Z,18.40
2022-08-19T02:09:28.110Z,18.80
2022-08-19T02:11:56.891Z,18.70
2022-08-19T02:14:25.264Z,17.80
2022-08-19T02:16:53.559Z,18.80
2022-08-19T02:19:21.790Z,18.90
2022-08-19T02:21:50.218Z,18.00
2022-08-19T02:24:18.517Z,18.30
2022-08-19T02:26:46.796Z,18.60
2022-08-19T02:29:15.133Z,19.90
2022-08-19T02:31:43.441Z,18.00
2022-08-19T02:34:11.658Z,17.40
2022-08-19T02:36:42.566Z,17.70
2022-08-19T02:39:11.569Z,17.30
2022-08-19T02:41:39.794Z,17.90
2022-08-19T02:44:28.524Z,17.80
2022-08-19T02:46:56.561Z,18.10
2022-08-19T02:49:24.895Z,18.80
2022-08-19T02:51:53.130Z,17.90
2022-08-19T02:54:21.435Z,17.80
2022-08-19T02:56:49.650Z,17.60
2022-08-19T02:59:17.838Z,17.00
2022-08-19T03:01:49.462Z,17.50
2022-08-19T03:04:17.748Z,18.80
2022-08-19T03:06:48.105Z,18.10
2022-08-19T03:09:17.878Z,17.50
2022-08-19T03:11:46.523Z,18.30
2022-08-19T03:14:17.980Z,19.10
2022-08-19T03:16:51.295Z,17.30
2022-08-19T03:19:22.351Z,18.70
2022-08-19T03:21:51.555Z,17.60
2022-08-19T03:24:21.324Z,17.20
2022-08-19T03:26:52.977Z,18.20
2022-08-19T03:29:30.347Z,18.00
2022-08-19T03:32:02.172Z,17.60
2022-08-19T03:34:37.375Z,16.60
2022-08-19T03:37:13.451Z,18.30
2022-08-19T03:39:43.409Z,18.60
2022-08-19T03:42:38.765Z,18.20
2022-08-19T03:45:00.981Z,16.80
2022-08-19T03:47:29.271Z,17.60
2022-08-19T03:49:57.570Z,17.70
2022-08-19T03:52:25.860Z,18.60
2022-08-19T03:54:54.184Z,17.80
2022-08-19T03:57:27.853Z,17.20
2022-08-19T04:00:12.577Z,19.10
2022-08-19T04:02:58.220Z,16.90
2022-08-19T04:05:30.240Z,18.00
2022-08-19T04:08:00.465Z,18.80
2022-08-19T04:10:29.778Z,19.30
2022-08-19T04:12:58.158Z,18.30
2022-08-19T04:15:27.008Z,19.70
2022-08-19T04:17:55.894Z,19.60
2022-08-19T04:20:24.251Z,20.30
2022-08-19T04:22:52.763Z,20.00
2022-08-19T04:25:21.329Z,18.80
2022-08-19T04:27:49.599Z,19.20
2022-08-19T04:30:18.912Z,19.40
2022-08-19T04:32:47.245Z,20.50
2022-08-19T04:35:16.796Z,19.90
2022-08-19T04:37:46.905Z,18.40
2022-08-19T04:40:34.150Z,21.30
2022-08-19T04:43:02.526Z,21.00
2022-08-19T04:45:39.609Z,21.20
2022-08-19T04:48:26.646Z,20.70
2022-08-19T04:50:59.399Z,21.40
2022-08-19T04:53:37.862Z,19.30
2022-08-19T04:56:12.884Z,19.40
2022-08-19T04:58:43.788Z,20.90
2022-08-19T05:01:19.385Z,20.30
2022-08-19T05:03:48.510Z,19.60
2022-08-19T05:06:19.065Z,18.90
2022-08-19T05:08:47.516Z,19.30
2022-08-19T05:11:15.718Z,19.30
2022-08-19T05:13:45.451Z,20.50
2022-08-19T05:16:14.327Z,18.70
2022-08-19T05:19:01.554Z,18.40
2022-08-19T05:21:49.270Z,18.90
2022-08-19T05:24:19.803Z,19.30
2022-08-19T05:26:50.649Z,18.60
2022-08-19T05:29:21.370Z,18.10
2022-08-19T05:31:51.653Z,17.40
2022-08-19T05:34:23.332Z,17.00
2022-08-19T05:36:58.155Z,16.90
2022-08-19T05:39:29.780Z,16.80
2022-08-19T05:42:00.670Z,17.40
2022-08-19T05:44:32.517Z,15.70
2022-08-19T05:47:03.396Z,17.00
2022-08-19T05:49:33.306Z,14.70
2022-08-19T05:52:11.984Z,16.70
2022-08-19T05:54:42.705Z,16.40
2022-08-19T05:57:11.756Z,17.20
2022-08-19T05:59:43.243Z,15.40
2022-08-19T06:02:11.797Z,14.60
2022-08-19T06:04:40.523Z,15.90
2022-08-19T06:07:12.330Z,14.70
2022-08-19T06:09:43.583Z,14.60
2022-08-19T06:12:12.239Z,15.40
2022-08-19T06:14:42.604Z,15.50
2022-08-19T06:17:11.064Z,15.30
2022-08-19T06:19:41.082Z,14.00
2022-08-19T06:22:09.526Z,15.10
2022-08-19T06:24:37.790Z,14.60
2022-08-19T06:27:09.113Z,14.80
2022-08-19T06:29:39.581Z,14.00
2022-08-19T06:32:07.869Z,14.60
2022-08-19T06:34:36.331Z,14.90
2022-08-19T06:37:06.769Z,14.50
2022-08-19T06:39:39.780Z,14.60
2022-08-19T06:42:11.157Z,13.50
2022-08-19T06:44:43.285Z,14.10
2022-08-19T06:47:23.542Z,14.30
2022-08-19T06:50:03.731Z,13.30
2022-08-19T06:52:36.781Z,13.90
2022-08-19T06:55:07.472Z,13.30
2022-08-19T06:57:35.777Z,12.90
2022-08-19T07:00:09.721Z,12.00
2022-08-19T07:02:48.095Z,13.10
2022-08-19T07:05:23.978Z,13.10
2022-08-19T07:07:52.358Z,12.40
2022-08-19T07:10:20.962Z,12.20
2022-08-19T07:12:51.298Z,12.40
2022-08-19T07:15:22.503Z,12.40
2022-08-19T07:17:52.640Z,12.30
2022-08-19T07:20:21.482Z,11.70
2022-08-19T07:22:50.582Z,12.40
2022-08-19T07:25:22.020Z,11.80
2022-08-19T07:28:01.485Z,11.70
2022-08-19T07:30:30.468Z,11.70
2022-08-19T07:32:59.892Z,11.30
2022-08-19T07:35:33.360Z,11.40
2022-08-19T07:38:03.761Z,12.30
2022-08-19T07:40:32.090Z,11.60
2022-08-19T07:43:00.778Z,11.70
2022-08-19T07:45:29.732Z,10.20
2022-08-19T07:47:58.979Z,10.60
2022-08-19T07:50:27.887Z,10.50
2022-08-19T07:52:56.304Z,11.40
2022-08-19T07:55:40.310Z,10.50
2022-08-19T07:58:15.577Z,9.90
2022-08-19T08:00:47.082Z,10.40
2022-08-19T08:03:18.502Z,10.00
2022-08-19T08:06:05.886Z,9.50
2022-08-19T08:08:53.106Z,10.20
2022-08-19T08:11:23.864Z,10.40
2022-08-19T08:14:00.733Z,10.30
2022-08-19T08:16:39.477Z,9.20
2022-08-19T08:19:20.472Z,9.60
2022-08-19T08:21:56.715Z,10.30
2022-08-19T08:24:28.385Z,10.10
2022-08-19T08:27:00.091Z,9.90
2022-08-19T08:29:34.940Z,9.20
2022-08-19T08:32:14.066Z,10.00
2022-08-19T08:34:44.184Z,10.20
2022-08-19T08:37:12.536Z,10.80
2022-08-19T08:39:44.831Z,10.40
2022-08-19T08:42:33.716Z,10.10
2022-08-19T08:45:08.090Z,10.70
2022-08-19T08:47:42.057Z,9.30
2022-08-19T08:50:20.484Z,10.20
2022-08-19T08:52:53.669Z,9.60
2022-08-19T08:55:25.938Z,10.90
2022-08-19T08:58:01.053Z,10.80
2022-08-19T09:00:35.265Z,10.20
2022-08-19T09:03:07.035Z,8.80
2022-08-19T09:06:12.155Z,9.90
2022-08-19T09:09:11.768Z,9.50
2022-08-19T09:12:18.944Z,9.80
2022-08-19T09:17:32.265Z,9.50
2022-08-19T09:20:14.300Z,9.40
2022-08-19T09:22:45.416Z,9.30
2022-08-19T09:25:17.570Z,9.30
2022-08-19T09:27:55.485Z,9.80
2022-08-19T09:30:34.957Z,9.70
2022-08-19T09:33:03.404Z,9.00
2022-08-19T09:35:32.301Z,9.50
2022-08-19T09:38:18.600Z,9.10
2022-08-19T09:40:46.920Z,8.30
2022-08-19T09:43:15.062Z,8.50
2022-08-19T09:46:02.467Z,8.50
2022-08-19T09:48:30.527Z,8.20
2022-08-19T09:51:07.670Z,9.40
2022-08-19T09:53:40.256Z,10.00
2022-08-19T09:56:09.418Z,9.60
2022-08-19T09:58:38.715Z,9.50
2022-08-19T10:01:08.189Z,9.50
2022-08-19T10:03:37.421Z,9.80
2022-08-19T10:06:14.803Z,9.60
2022-08-19T10:08:50.455Z,8.50
2022-08-19T10:11:27.860Z,8.50
2022-08-19T10:14:06.851Z,13.70
2022-08-19T10:16:39.604Z,8.80
2022-08-19T10:19:08.140Z,9.10
2022-08-19T10:21:36.946Z,10.10
2022-08-19T10:24:06.357Z,8.80
2022-08-19T10:26:38.126Z,8.40
2022-08-19T10:29:09.217Z,13.40
2022-08-19T10:32:00.858Z,8.70
2022-08-19T10:34:28.217Z,8.30
2022-08-19T10:37:00.599Z,8.30
2022-08-19T10:39:43.077Z,8.60
2022-08-19T10:42:14.087Z,7.60
2022-08-19T10:44:42.768Z,8.00
2022-08-19T10:47:21.972Z,7.90
2022-08-19T10:50:13.801Z,7.60
2022-08-19T10:52:49.836Z,8.40
2022-08-19T10:55:51.344Z,9.90
2022-08-19T10:58:23.591Z,8.80
2022-08-19T11:00:57.371Z,7.80
2022-08-19T11:03:28.856Z,8.10
2022-08-19T11:06:06.449Z,10.90
2022-08-19T11:08:37.893Z,7.60
2022-08-19T11:11:08.167Z,7.70
2022-08-19T11:13:40.532Z,7.80
2022-08-19T11:16:14.437Z,9.20
2022-08-19T11:18:47.911Z,8.00
2022-08-19T11:21:29.412Z,7.70
2022-08-19T11:24:00.081Z,7.80
2022-08-19T11:26:30.444Z,7.80
2022-08-19T11:28:59.843Z,8.60
2022-08-19T11:31:31.836Z,7.80
2022-08-19T11:34:02.608Z,7.90
2022-08-19T11:36:32.468Z,7.50
2022-08-19T11:39:01.832Z,6.70
2022-08-19T11:41:29.956Z,6.80
2022-08-19T11:43:58.272Z,7.70
2022-08-19T11:46:30.467Z,7.80
2022-08-19T11:49:01.528Z,8.20
2022-08-19T11:51:30.712Z,7.40
2022-08-19T11:54:00.513Z,7.00
2022-08-19T11:56:29.493Z,6.90
2022-08-19T11:58:58.088Z,7.00
2022-08-19T12:01:27.738Z,7.20
2022-08-19T12:03:57.623Z,6.70
2022-08-19T12:06:32.751Z,6.80
2022-08-19T12:09:05.856Z,8.30
2022-08-19T12:11:34.417Z,8.00
2022-08-19T12:14:03.072Z,6.60
2022-08-19T12:16:33.851Z,6.30
2022-08-19T12:19:05.561Z,6.80
2022-08-19T12:21:36.480Z,6.70
2022-08-19T12:24:06.841Z,7.00
2022-08-19T12:26:35.841Z,7.10
2022-08-19T12:29:24.370Z,6.90
2022-08-19T12:32:02.302Z,7.30
2022-08-19T12:34:33.829Z,7.40
2022-08-19T12:37:04.159Z,7.40
2022-08-19T12:39:42.877Z,7.10
2022-08-19T12:42:14.663Z,7.30
2022-08-19T12:44:43.707Z,7.00
2022-08-19T12:47:15.413Z,7.70
2022-08-19T12:49:53.548Z,7.50
2022-08-19T12:52:26.227Z,7.10
2022-08-19T12:54:59.002Z,7.80
2022-08-19T12:57:32.431Z,6.50
2022-08-19T13:00:10.090Z,7.10
2022-08-19T13:02:47.842Z,7.20
2022-08-19T13:05:21.079Z,7.20
2022-08-19T13:07:51.111Z,7.20
2022-08-19T13:10:21.504Z,7.00
2022-08-19T13:12:51.681Z,7.40
2022-08-19T13:15:23.834Z,7.10
2022-08-19T13:17:54.897Z,7.60
2022-08-19T13:20:24.811Z,7.00
2022-08-19T13:22:54.548Z,7.80
2022-08-19T13:25:22.763Z,7.40
2022-08-19T13:27:51.893Z,7.10
2022-08-19T13:30:39.610Z,7.30
2022-08-19T13:33:17.700Z,7.20
2022-08-19T13:35:49.537Z,7.20
2022-08-19T13:38:21.568Z,6.70
2022-08-19T13:40:53.038Z,7.90
2022-08-19T13:43:24.344Z,7.20
2022-08-19T13:45:57.249Z,6.70
2022-08-19T13:48:29.897Z,7.00
2022-08-19T13:50:58.080Z,7.40
2022-08-19T13:53:26.319Z,7.70
2022-08-19T13:55:54.989Z,7.40
2022-08-19T13:58:23.718Z,6.90
2022-08-19T14:00:52.428Z,7.40
2022-08-19T14:03:20.842Z,7.50
2022-08-19T14:05:49.052Z,6.20
2022-08-19T14:08:17.784Z,6.70
2022-08-19T14:10:46.475Z,7.10
2022-08-19T14:13:17.419Z,7.20
2022-08-19T14:15:46.617Z,7.60
2022-08-19T14:18:16.993Z,7.00
2022-08-19T14:20:45.523Z,7.20
2022-08-19T14:23:14.773Z,6.70
2022-08-19T14:25:43.968Z,7.30
2022-08-19T14:28:12.101Z,7.40
2022-08-19T14:30:40.334Z,7.90
2022-08-19T14:33:09.536Z,7.50
2022-08-19T14:35:38.119Z,8.00
2022-08-19T14:38:07.704Z,7.50
2022-08-19T14:40:35.985Z,7.10
2022-08-19T14:43:05.519Z,7.90
2022-08-19T14:45:37.152Z,7.60
2022-08-19T14:48:08.138Z,7.70
2022-08-19T14:50:46.363Z,7.90
2022-08-19T14:53:16.751Z,8.00
2022-08-19T14:55:47.207Z,7.80
2022-08-19T14:58:29.042Z,7.60
2022-08-19T15:01:02.479Z,7.80
2022-08-19T15:03:33.012Z,7.90
2022-08-19T15:06:03.824Z,8.20
2022-08-19T15:08:35.079Z,7.40
2022-08-19T15:11:04.131Z,8.50
2022-08-19T15:13:32.307Z,7.30
2022-08-19T15:16:04.347Z,7.90
2022-08-19T15:18:33.621Z,7.80
2022-08-19T15:21:02.627Z,7.30
2022-08-19T15:23:31.063Z,7.60
2022-08-19T15:25:59.247Z,8.00
2022-08-19T15:28:27.495Z,8.20
2022-08-19T15:30:55.576Z,7.30
2022-08-19T15:33:23.914Z,8.20
2022-08-19T15:35:52.086Z,8.60
2022-08-19T15:38:22.361Z,8.10
2022-08-19T15:40:51.403Z,8.70
2022-08-19T15:43:23.784Z,8.40
2022-08-19T15:45:51.981Z,8.30
2022-08-19T15:48:20.083Z,7.90
2022-08-19T15:50:48.152Z,8.20
2022-08-19T15:53:16.287Z,8.20
2022-08-19T15:55:46.096Z,8.80
2022-08-19T15:58:34.352Z,8.80
2022-08-19T16:01:26.875Z,8.70
2022-08-19T16:04:15.647Z,9.00
2022-08-19T16:06:54.241Z,9.10
2022-08-19T16:09:29.039Z,8.80
2022-08-19T16:12:02.144Z,9.10
2022-08-19T16:14:33.563Z,8.70
2022-08-19T16:17:02.631Z,9.50
2022-08-19T16:19:32.596Z,9.00
2022-08-19T16:22:00.815Z,8.70
2022-08-19T16:24:29.332Z,9.60
2022-08-19T16:26:57.426Z,9.60
2022-08-19T16:29:33.923Z,9.40
2022-08-19T16:32:06.408Z,9.20
2022-08-19T16:34:34.629Z,9.20
2022-08-19T16:37:03.291Z,9.60
2022-08-19T16:39:31.578Z,10.00
2022-08-19T16:41:59.988Z,9.40
2022-08-19T16:44:29.879Z,9.10
2022-08-19T16:46:59.758Z,10.60
2022-08-19T16:49:53.210Z,10.20
2022-08-19T16:52:19.932Z,10.50
2022-08-19T16:54:48.907Z,10.70
2022-08-19T16:57:17.047Z,10.90
2022-08-19T16:59:48.874Z,10.30
2022-08-19T17:02:19.356Z,11.20
2022-08-19T17:04:57.284Z,10.70
2022-08-19T17:07:29.433Z,11.30
2022-08-19T17:10:04.774Z,11.10
2022-08-19T17:12:33.215Z,11.30
2022-08-19T17:15:02.821Z,10.30
2022-08-19T17:17:31.978Z,10.90
2022-08-19T17:20:02.293Z,10.70
2022-08-19T17:22:30.504Z,11.00
2022-08-19T17:24:58.749Z,12.20
2022-08-19T17:27:31.321Z,11.90
2022-08-19T17:30:03.011Z,10.10
2022-08-19T17:32:35.247Z,12.00
2022-08-19T17:35:04.237Z,11.20
2022-08-19T17:37:33.661Z,12.00
2022-08-19T17:40:05.056Z,13.70
2022-08-19T17:42:33.773Z,15.00
2022-08-19T17:45:02.332Z,12.60
2022-08-19T17:47:31.416Z,13.00
2022-08-19T17:49:59.956Z,12.70
2022-08-19T17:52:28.184Z,13.00
2022-08-19T17:54:56.580Z,13.30
2022-08-19T17:57:25.085Z,12.60
2022-08-19T17:59:53.939Z,12.60
2022-08-19T18:02:22.439Z,12.80
2022-08-19T18:04:51.039Z,12.60
2022-08-19T18:07:21.683Z,11.50
2022-08-19T18:09:52.607Z,12.70
2022-08-19T18:12:24.765Z,12.80
2022-08-19T18:14:52.916Z,12.60
2022-08-19T18:17:23.457Z,14.00
2022-08-19T18:19:51.705Z,12.40
2022-08-19T18:22:31.399Z,12.30
2022-08-19T18:25:02.100Z,11.30
2022-08-19T18:27:31.207Z,11.00
2022-08-19T18:30:00.101Z,12.00
2022-08-19T18:32:34.146Z,12.50
2022-08-19T18:35:05.855Z,12.20
2022-08-19T18:37:33.963Z,12.10
2022-08-19T18:40:20.855Z,12.00
2022-08-19T18:43:07.996Z,12.50
2022-08-19T18:45:54.923Z,11.20
2022-08-19T18:48:42.010Z,13.20
2022-08-19T18:51:11.988Z,12.60
2022-08-19T18:53:42.835Z,13.50
2022-08-19T18:56:14.290Z,13.00
2022-08-19T18:58:43.812Z,13.10
2022-08-19T19:01:21.969Z,45.90
2022-08-19T19:03:53.570Z,44.50
2022-08-19T19:06:29.827Z,15.90
2022-08-19T19:08:58.240Z,14.30
2022-08-19T19:11:34.000Z,15.70
2022-08-19T19:14:05.704Z,14.40
2022-08-19T19:16:34.247Z,16.30
2022-08-19T19:19:03.075Z,13.80
2022-08-19T19:21:34.484Z,13.50
2022-08-19T19:24:03.715Z,13.30
2022-08-19T19:26:32.210Z,12.60
2022-08-19T19:29:00.564Z,13.30
2022-08-19T19:31:29.300Z,14.20
2022-08-19T19:33:58.107Z,13.10
2022-08-19T19:36:26.775Z,13.50
2022-08-19T19:38:55.605Z,13.60
2022-08-19T19:41:24.695Z,12.90
2022-08-19T19:44:29.808Z,13.80
2022-08-19T19:46:49.700Z,12.70
2022-08-19T19:49:18.137Z,12.80
2022-08-19T19:51:46.676Z,14.20
2022-08-19T19:54:15.115Z,14.40
2022-08-19T19:56:45.126Z,14.60
2022-08-19T19:59:13.643Z,14.10
2022-08-19T20:01:46.064Z,13.60
2022-08-19T20:04:16.970Z,12.90
2022-08-19T20:06:46.831Z,12.80
2022-08-19T20:09:19.894Z,13.30
2022-08-19T20:11:55.038Z,18.30
2022-08-19T20:14:26.988Z,17.50
2022-08-19T20:16:56.404Z,15.10
2022-08-19T20:19:37.274Z,13.70
2022-08-19T20:22:06.731Z,13.40
2022-08-19T20:24:36.376Z,13.20
2022-08-19T20:27:05.553Z,12.20
2022-08-19T20:29:39.287Z,12.90
2022-08-19T20:32:10.683Z,12.80
2022-08-19T20:34:40.605Z,13.00
2022-08-19T20:37:11.513Z,14.00
2022-08-19T20:39:39.709Z,13.30
2022-08-19T20:42:07.907Z,13.30
2022-08-19T20:44:37.223Z,13.40
2022-08-19T20:47:05.644Z,14.00
2022-08-19T20:49:35.420Z,13.80
2022-08-19T20:52:05.153Z,12.90
2022-08-19T20:54:33.628Z,14.70
2022-08-19T20:57:03.875Z,12.60
2022-08-19T20:59:32.005Z,12.50
2022-08-19T21:02:00.179Z,12.00
2022-08-19T21:04:28.288Z,11.80
2022-08-19T21:06:56.531Z,11.20
2022-08-19T21:09:24.853Z,11.00
2022-08-19T21:11:53.686Z,11.90
2022-08-19T21:14:22.806Z,12.60
2022-08-19T21:16:51.063Z,10.50
2022-08-19T21:19:23.715Z,12.00
2022-08-19T21:21:52.678Z,11.40
2022-08-19T21:24:21.374Z,10.90
2022-08-19T21:26:54.617Z,11.10
2022-08-19T21:29:23.284Z,11.50
2022-08-19T21:31:52.099Z,11.20
2022-08-19T21:34:20.393Z,10.10
2022-08-19T21:36:48.644Z,9.40
2022-08-19T21:39:16.817Z,10.80
2022-08-19T21:41:45.038Z,11.30
2022-08-19T21:44:13.314Z,10.60
2022-08-19T21:46:41.400Z,10.60
2022-08-19T21:49:09.588Z,10.10
2022-08-19T21:51:38.500Z,11.30
2022-08-19T21:54:07.174Z,10.90
2022-08-19T21:56:42.371Z,9.70
2022-08-19T21:59:10.652Z,10.10
2022-08-19T22:01:38.855Z,10.30
2022-08-19T22:04:07.053Z,10.70
2022-08-19T22:06:35.628Z,10.70
2022-08-19T22:09:03.818Z,11.20
2022-08-19T22:11:32.436Z,10.60
2022-08-19T22:14:00.589Z,11.40
2022-08-19T22:16:32.847Z,10.70
2022-08-19T22:19:00.972Z,11.40
2022-08-19T22:21:40.271Z,10.80
2022-08-19T22:24:10.151Z,10.60
2022-08-19T22:26:39.742Z,10.70
2022-08-19T22:29:08.443Z,10.90
2022-08-19T22:31:39.798Z,10.40
2022-08-19T22:34:08.024Z,10.70
2022-08-19T22:36:36.403Z,10.80
2022-08-19T22:39:07.731Z,11.40
2022-08-19T22:41:35.995Z,10.20
2022-08-19T22:44:04.398Z,10.80
2022-08-19T22:46:33.773Z,10.90
2022-08-19T22:49:01.962Z,11.10
2022-08-19T22:51:48.872Z,10.50
2022-08-19T22:54:17.099Z,11.30
2022-08-19T22:56:45.874Z,12.50
2022-08-19T22:59:14.162Z,13.00
2022-08-19T23:01:42.322Z,12.00
2022-08-19T23:04:10.751Z,11.70
2022-08-19T23:06:41.867Z,10.60
2022-08-19T23:09:10.878Z,11.50
2022-08-19T23:14:15.466Z,12.00
2022-08-19T23:16:50.541Z,11.60
2022-08-19T23:19:20.677Z,10.90
2022-08-19T23:21:49.339Z,11.30
2022-08-19T23:24:17.514Z,11.40
2022-08-19T23:27:04.775Z,11.30
2022-08-19T23:29:52.524Z,11.50
2022-08-19T23:32:22.057Z,10.90
2022-08-19T23:34:50.173Z,11.50
2022-08-19T23:37:18.505Z,11.50
2022-08-19T23:39:46.726Z,10.50
2022-08-19T23:42:14.841Z,10.90
2022-08-19T23:44:51.316Z,11.40
2022-08-19T23:47:21.018Z,10.70
2022-08-19T23:49:50.766Z,11.50
2022-08-19T23:52:19.730Z,11.40
2022-08-19T23:54:48.018Z,11.70
2022-08-19T23:57:16.156Z,11.30
2022-08-19T23:59:45.780Z,11.00
